St Ives Cornwall, United Kingdom
Current Conditions -  °F | °C
As of 3:50 PM on Thursday 30 Oct 2014 (Local Time) from EGDR Reporting Station
Moderate Fog Moderate Fog  
Wind Chill: 59°   Ceiling: 100
Heat Index: 59°   Visibility: 0.25mi
Dew Point: 59°   Wind: 12mph
Humidity: 100%   Direction: 180°S
Pressure: 29.97"   Gusts: NA
Location:  50.21°N, 5.48°W
Report Text: EGDR 301550Z 18010KT 0400 FG BKN000 OVC001 15/15 Q1015 RED NOSIG
Loading
Personal Weather Stations






























Interactive Weather Map
Tropical Storm Tracking
New forecast layout! Learn more

10-Day Weather Forecast

Advertisements
Track Severe Weather on mobile